SBOSBO VLC / LEVC
Speedbird OnlineSpeedbird Online VLC / LEVC

Valencia Airport
09:03 18.7°C

Location Valencia, Spain
Latitude: 39.4893
Longitude: -0.481625
Web Airport Website | Wikipedia
Altitude 73 Meter / 240 Feet
Distance 1,337 KM / 831 Miles
from London.
Time Zone UTC +2 hours (Europe/Madrid)
Codes IATA: VLC
ICAO: LEVC
Currency £1 equals EUR 1.15
Runways
RunwayLength (m)Surface
041644Asphalt
122700Asphalt
221644Asphalt
302700Asphalt
Radio
TypeDescriptionFrequency
APPAPP120.1
ATISATIS121.075
GNDGND121.7
TWRTWR118.55
Live ATC
METAR LEVC 060630Z 33008KT 9999 BKN020 FEW025CB 18/15 Q1025 NOSIG
TAF TAF LEVC 060500Z 0606/0706 VRB04KT 9999 BKN020 TX24/0612Z TN18/0606Z TEMPO 0606/0609 01006KT BKN014 PROB30 TEMPO 0606/0612 4000 SHRA FEW015TCU BECMG 0608/0610 06012KT TEMPO 0612/0624 3000 SHRA SCT015CB PROB40 TEMPO 0612/0624 1500 +TSRA SCT015CB
Weather As Of 06 Oct 2022 09:03
Description Broken clouds
Wind 15 km/h from North-West (330°)
Cloud Cover 75%
Precipitation Rain: none, Snow: none
Sunrise 08:02
Sunset 19:37
Lounges Sala VIP Joan Olivert , -
Rotations During the last 90 days there were
85 flights from LHR
71 flights to LHR
1 flights to BCN


© 2017-2022 Speedbird Online